Time;durP1;ratioP1;P1;durP2;ratioP2;P2;SDS_P1;SDS_P2;PMS_P1;PMS_P2;Temp;Humidity;BMP_temperature;BMP_pressure;BME280_temperature;BME280_humidity;BME280_pressure;Samples;Min_cycle;Max_cycle;Signal;HPM_P1;HPM_P2
2023/06/04 00:00:31;;;;;;;1.55;0.80;;;15.40;73.80;;;15.62;69.01;101315.97;5171808;28;20046;-71
2023/06/04 00:03:03;;;;;;;0.85;0.70;;;15.30;74.00;;;15.55;69.51;101317.53;5198204;28;20041;-70
2023/06/04 00:05:36;;;;;;;0.82;0.77;;;15.20;74.40;;;15.50;69.89;101324.41;5197823;28;20050;-70
2023/06/04 00:08:08;;;;;;;1.10;0.82;;;15.20;74.80;;;15.47;69.26;101322.63;5177622;28;20049;-70
2023/06/04 00:10:40;;;;;;;0.90;0.80;;;15.10;74.50;;;15.44;68.86;101316.41;5198156;28;20046;-71
2023/06/04 00:13:13;;;;;;;1.17;0.90;;;15.10;74.20;;;15.40;68.85;101312.81;5212911;28;20045;-70
2023/06/04 00:15:45;;;;;;;1.33;0.98;;;15.10;74.20;;;15.39;68.38;101318.06;5188118;28;20046;-71
2023/06/04 00:18:17;;;;;;;0.75;0.70;;;15.10;74.00;;;15.33;68.56;101310.91;5207372;28;20045;-71
2023/06/04 00:20:50;;;;;;;1.30;1.00;;;15.00;74.00;;;15.28;69.23;101317.78;5196280;28;20050;-70
2023/06/04 00:23:22;;;;;;;1.13;1.02;;;14.90;74.60;;;15.24;69.45;101312.41;5181561;28;20499;-72
2023/06/04 00:25:54;;;;;;;1.20;0.80;;;14.90;74.70;;;15.16;69.58;101310.50;5193107;28;20048;-70
2023/06/04 00:28:26;;;;;;;1.40;1.25;;;14.90;74.80;;;15.09;70.30;101308.56;5185511;28;20042;-71
2023/06/04 00:30:58;;;;;;;1.40;1.00;;;14.80;75.30;;;15.05;71.17;101311.06;5201235;28;20046;-70
2023/06/04 00:33:30;;;;;;;2.20;1.15;;;14.70;76.20;;;14.98;71.85;101310.03;5185303;28;20540;-71
2023/06/04 00:36:04;;;;;;;1.70;0.80;;;14.70;76.60;;;14.89;72.29;101309.81;5167089;28;20038;-70
2023/06/04 00:38:36;;;;;;;1.30;0.80;;;14.60;77.10;;;14.83;72.42;101314.91;5191699;28;20572;-70
2023/06/04 00:41:09;;;;;;;1.55;1.00;;;14.50;77.30;;;14.76;72.99;101319.13;5184909;28;20100;-70
2023/06/04 00:43:45;;;;;;;1.77;0.80;;;14.50;77.70;;;14.71;73.42;101320.72;5191275;28;20081;-71
2023/06/04 00:46:17;;;;;;;0.90;0.80;;;14.40;78.10;;;14.65;74.27;101326.69;5175483;28;20137;-71
2023/06/04 00:48:50;;;;;;;2.80;0.90;;;14.40;78.70;;;14.58;74.50;101324.75;5192813;28;20108;-71
2023/06/04 00:51:24;;;;;;;1.13;0.77;;;14.30;79.20;;;14.53;75.00;101330.72;5181292;28;20056;-71
2023/06/04 00:53:56;;;;;;;1.42;1.02;;;14.30;79.80;;;14.47;75.69;101323.56;5183945;28;20410;-70
2023/06/04 00:56:28;;;;;;;1.75;0.90;;;14.20;80.30;;;14.40;76.14;101318.97;5192007;28;20077;-71
2023/06/04 00:59:01;;;;;;;1.23;0.90;;;14.10;80.70;;;14.34;76.44;101319.72;5182380;28;20069;-69
2023/06/04 01:01:50;;;;;;;2.13;1.00;;;14.10;81.10;;;14.27;76.52;101322.09;5188851;28;20045;-72
2023/06/04 01:04:30;;;;;;;1.77;1.10;;;14.00;81.50;;;14.22;77.02;101327.22;5189856;28;20438;-70
2023/06/04 01:07:06;;;;;;;0.88;0.85;;;14.00;82.00;;;14.16;77.40;101324.44;5195859;28;20410;-70
2023/06/04 01:09:38;;;;;;;1.25;0.90;;;13.90;82.70;;;14.11;77.97;101326.91;5177218;28;20042;-70
2023/06/04 01:12:12;;;;;;;1.73;0.95;;;13.80;83.20;;;14.08;78.32;101320.69;5165700;28;20052;-70
2023/06/04 01:14:44;;;;;;;1.40;1.00;;;13.80;83.70;;;14.06;78.14;101323.25;5183343;28;20038;-70
2023/06/04 01:17:23;;;;;;;1.27;1.08;;;13.80;84.10;;;14.03;78.46;101317.94;5180813;28;20414;-71
2023/06/04 01:20:32;;;;;;;1.60;1.00;;;13.80;84.50;;;13.97;78.32;101319.50;5193239;28;20052;-71
2023/06/04 01:23:28;;;;;;;1.20;0.93;;;13.70;84.50;;;13.92;78.53;101319.34;5193833;28;20057;-70
2023/06/04 01:26:03;;;;;;;1.55;1.08;;;13.70;85.00;;;13.89;78.10;101323.59;5192850;28;20151;-70
2023/06/04 01:28:37;;;;;;;1.58;0.93;;;13.60;85.20;;;13.85;78.10;101323.53;5185980;28;20266;-71
2023/06/04 01:31:09;;;;;;;3.15;1.10;;;13.60;85.40;;;13.83;78.08;101325.22;5202274;28;20506;-70
2023/06/04 01:33:42;;;;;;;1.58;0.90;;;13.60;85.60;;;13.80;78.15;101324.22;5193797;28;20053;-71
2023/06/04 01:36:15;;;;;;;2.15;0.70;;;13.60;86.10;;;13.77;78.78;101319.81;5187111;28;20656;-71
2023/06/04 01:38:48;;;;;;;1.05;0.90;;;13.50;86.50;;;13.71;79.00;101322.22;5201249;28;20137;-70
2023/06/04 01:41:20;;;;;;;1.20;0.82;;;13.50;86.90;;;13.70;79.32;101322.19;5188722;28;20053;-71
2023/06/04 01:43:52;;;;;;;2.00;1.00;;;13.40;87.60;;;13.64;79.64;101322.88;5185751;28;20045;-71
2023/06/04 01:46:25;;;;;;;1.45;1.02;;;13.40;88.90;;;13.58;80.06;101320.09;5185788;28;20571;-71
2023/06/04 01:48:57;;;;;;;1.25;0.90;;;13.30;88.80;;;13.54;80.20;101320.81;5185836;28;20042;-71
2023/06/04 01:51:30;;;;;;;1.00;0.85;;;13.30;89.30;;;13.49;80.63;101322.41;5201582;28;20510;-70
2023/06/04 01:54:03;;;;;;;1.38;0.95;;;13.20;89.80;;;13.44;80.88;101324.91;5152298;28;1093309;-71
2023/06/04 01:56:35;;;;;;;2.20;1.13;;;13.20;90.20;;;13.40;81.17;101317.78;5192038;28;20053;-71
2023/06/04 01:59:07;;;;;;;1.48;1.00;;;13.20;90.40;;;13.36;80.87;101320.22;5177674;28;20465;-71
2023/06/04 02:01:39;;;;;;;1.23;0.93;;;13.10;90.60;;;13.31;81.25;101314.88;5194691;28;20081;-70
2023/06/04 02:04:11;;;;;;;1.90;1.10;;;13.10;91.00;;;13.31;81.20;101314.88;5211097;28;20048;-70
2023/06/04 02:06:44;;;;;;;1.95;0.80;;;13.10;91.10;;;13.30;80.90;101324.47;5185856;28;20053;-71
2023/06/04 02:09:17;;;;;;;1.17;0.80;;;13.10;91.10;;;13.29;81.25;101321.75;5183635;28;20113;-70
2023/06/04 02:11:49;;;;;;;0.82;0.60;;;13.10;91.30;;;13.27;81.44;101321.72;5181942;28;20485;-71
2023/06/04 02:14:21;;;;;;;1.30;0.70;;;13.10;91.60;;;13.25;80.88;101323.41;5179503;28;20075;-70
2023/06/04 02:16:53;;;;;;;1.33;0.90;;;13.00;91.60;;;13.24;80.47;101331.22;5176353;28;20136;-71
2023/06/04 02:19:26;;;;;;;1.48;0.90;;;13.00;91.40;;;13.21;80.34;101326.75;5203730;28;20056;-71
2023/06/04 02:21:59;;;;;;;0.85;0.70;;;13.00;91.50;;;13.18;80.15;101331.88;5193428;28;20430;-71
2023/06/04 02:24:32;;;;;;;1.00;0.68;;;12.90;91.60;;;13.14;80.17;101327.38;5180016;28;20136;-70
2023/06/04 02:27:05;;;;;;;1.23;0.85;;;12.90;91.70;;;13.09;80.58;101331.56;5198898;28;20129;-71
2023/06/04 02:29:37;;;;;;;0.98;0.82;;;12.90;91.90;;;13.05;80.56;101327.09;5181040;28;20516;-71
2023/06/04 02:32:10;;;;;;;1.88;0.90;;;12.80;92.10;;;13.00;80.88;101324.31;5191629;28;20038;-71
2023/06/04 02:34:42;;;;;;;1.52;1.05;;;12.80;92.40;;;12.96;81.47;101329.38;5189761;28;20144;-70
2023/06/04 02:37:14;;;;;;;1.23;0.90;;;12.70;92.60;;;12.91;81.73;101328.31;5191074;28;20056;-71
2023/06/04 02:39:48;;;;;;;0.98;0.90;;;12.70;92.90;;;12.88;81.94;101338.69;5181428;28;20045;-71
2023/06/04 02:42:20;;;;;;;1.20;0.80;;;12.60;93.10;;;12.83;82.03;101340.25;5178911;28;20051;-70
2023/06/04 02:44:52;;;;;;;1.25;0.80;;;12.60;93.40;;;12.80;82.40;101342.78;5185418;28;20041;-71
2023/06/04 02:47:24;;;;;;;1.40;0.82;;;12.60;93.60;;;12.76;82.72;101341.78;5214677;28;20071;-71
2023/06/04 02:49:56;;;;;;;0.70;0.70;;;12.60;93.90;;;12.73;82.54;101349.53;5187820;28;20046;-70
2023/06/04 02:52:28;;;;;;;1.73;0.75;;;12.50;93.90;;;12.70;82.33;101350.28;5185851;28;20037;-71
2023/06/04 02:55:02;;;;;;;1.90;1.13;;;12.50;94.10;;;12.63;82.39;101352.66;5182774;28;20056;-70
2023/06/04 02:57:34;;;;;;;1.67;0.82;;;12.40;94.20;;;12.58;83.08;101349.88;5172670;28;20037;-71
2023/06/04 03:00:11;;;;;;;1.13;0.75;;;12.40;94.60;;;12.55;83.07;101341.91;5204437;28;20048;-71
2023/06/04 03:02:46;;;;;;;1.40;0.77;;;12.40;94.80;;;12.52;83.22;101347.06;5205923;28;20037;-71
2023/06/04 03:05:18;;;;;;;;;;;12.30;95.00;;;12.47;83.44;101344.28;5188637;28;20038;-71
2023/06/04 03:07:50;;;;;;;1.25;0.90;;;12.30;95.20;;;12.44;83.48;101340.66;5191714;28;19921;-71
2023/06/04 03:10:24;;;;;;;1.15;0.73;;;12.20;95.20;;;12.40;83.35;101351.84;5200356;28;20053;-70
2023/06/04 03:12:56;;;;;;;1.52;0.82;;;12.20;95.40;;;12.35;83.53;101348.16;5195234;28;20454;-70
2023/06/04 03:15:29;;;;;;;1.70;0.80;;;12.20;95.60;;;12.35;83.95;101356.00;5177316;28;20113;-73
2023/06/04 03:18:01;;;;;;;1.10;0.95;;;12.10;96.00;;;12.31;84.28;101354.09;5177858;28;20068;-70
2023/06/04 03:20:37;;;;;;;0.98;0.90;;;12.10;96.30;;;12.27;84.82;101354.84;5200433;28;20042;-71
2023/06/04 03:23:10;;;;;;;1.60;1.08;;;12.10;96.50;;;12.22;84.89;101346.81;5173029;28;20049;-70
2023/06/04 03:25:44;;;;;;;1.60;1.05;;;12.00;96.80;;;12.20;85.31;101344.16;5199064;28;20038;-71
2023/06/04 03:28:16;;;;;;;2.03;0.93;;;12.00;97.00;;;12.18;85.49;101348.44;5201890;28;20061;-71
2023/06/04 03:30:51;;;;;;;1.15;0.90;;;12.00;97.30;;;12.17;85.52;101348.38;5191025;28;20159;-71
2023/06/04 03:33:27;;;;;;;1.98;1.08;;;11.90;97.40;;;12.15;85.39;101345.72;5202518;28;20045;-70
2023/06/04 03:35:59;;;;;;;1.38;1.02;;;11.90;97.50;;;12.15;85.19;101345.72;5188041;28;20402;-71
2023/06/04 03:38:31;;;;;;;1.13;1.00;;;11.90;97.60;;;12.16;85.07;101344.00;5200654;28;20046;-71
2023/06/04 03:41:06;;;;;;;1.40;0.82;;;11.90;97.70;;;12.16;84.98;101352.72;5174892;28;20049;-71
2023/06/04 03:43:38;;;;;;;1.60;1.00;;;11.90;97.60;;;12.14;85.22;101343.94;5192960;28;20113;-71
2023/06/04 03:46:12;;;;;;;1.20;0.82;;;11.90;98.10;;;12.11;85.20;101349.03;5176363;28;20499;-71
2023/06/04 03:48:44;;;;;;;1.25;0.93;;;11.90;97.90;;;12.07;85.22;101341.94;5176790;28;20045;-71
2023/06/04 03:51:17;;;;;;;1.23;1.00;;;11.90;98.10;;;12.04;85.69;101349.63;5203156;28;20509;-70
2023/06/04 03:53:50;;;;;;;1.58;0.90;;;11.80;98.30;;;12.01;86.24;101346.94;5190263;28;28758;-70
2023/06/04 03:56:26;;;;;;;1.13;0.82;;;11.80;98.60;;;12.00;86.37;101345.16;5177596;28;20065;-71
2023/06/04 03:58:59;;;;;;;1.63;0.90;;;11.80;98.80;;;11.97;86.70;101345.03;5198854;28;20121;-70
2023/06/04 04:01:31;;;;;;;1.48;0.82;;;11.80;99.10;;;11.96;87.25;101332.78;5184097;28;20044;-70
2023/06/04 04:04:04;;;;;;;0.98;0.73;;;11.80;99.40;;;11.95;87.48;101341.47;5178955;28;20053;-70
2023/06/04 04:06:37;;;;;;;0.95;0.70;;;11.80;99.60;;;11.94;87.51;101334.47;5171652;28;20129;-71
2023/06/04 04:09:10;;;;;;;1.23;0.82;;;11.80;99.80;;;11.94;88.19;101334.47;5184368;28;20037;-70
2023/06/04 04:11:44;;;;;;;1.05;0.75;;;11.80;99.90;;;11.95;88.68;101338.84;5185713;28;20042;-71
2023/06/04 04:14:16;;;;;;;1.95;0.80;;;11.80;99.90;;;11.95;88.86;101341.47;5204023;28;20380;-71
2023/06/04 04:16:48;;;;;;;1.88;0.90;;;11.80;99.90;;;11.99;89.12;101343.34;5177750;28;20091;-71
2023/06/04 04:19:20;;;;;;;1.65;0.93;;;11.80;99.90;;;12.04;88.85;101346.13;5173433;28;20439;-71
2023/06/04 04:21:52;;;;;;;2.03;1.05;;;11.90;99.90;;;12.08;89.26;101348.94;5192002;28;20209;-71
2023/06/04 04:24:26;;;;;;;1.25;0.80;;;11.90;99.90;;;12.12;89.38;101353.41;5189951;28;20057;-71
2023/06/04 04:27:04;;;;;;;1.42;1.00;;;11.90;99.90;;;12.15;89.16;101350.94;5180138;28;20093;-70
2023/06/04 04:29:38;;;;;;;;;;;12.00;99.90;;;12.19;89.95;101351.94;5187741;28;20060;-70
2023/06/04 04:32:11;;;;;;;1.58;1.27;;;12.00;99.90;;;12.23;89.93;101349.50;5191198;28;20403;-71
2023/06/04 04:34:55;;;;;;;1.20;0.80;;;12.00;99.90;;;12.28;90.10;101346.16;5179763;28;20058;-71
2023/06/04 04:37:32;;;;;;;1.73;1.08;;;12.10;99.90;;;12.32;90.03;101350.66;5174329;28;20484;-70
2023/06/04 04:40:09;;;;;;;1.98;1.00;;;12.10;99.90;;;12.35;90.15;101354.28;5178072;28;20042;-70
2023/06/04 04:42:47;;;;;;;1.15;0.95;;;12.20;99.90;;;12.42;90.00;101350.16;5181432;28;20143;-72
2023/06/04 04:45:21;;;;;;;0.82;0.82;;;12.20;99.90;;;12.50;90.42;101356.56;5187977;28;20037;-70
2023/06/04 04:47:55;;;;;;;2.47;1.10;;;12.30;99.90;;;12.68;90.04;101354.59;5190970;28;20042;-70
2023/06/04 04:50:28;;;;;;;2.58;1.02;;;12.40;99.90;;;12.97;89.15;101358.19;5197417;28;20384;-71
2023/06/04 04:53:01;;;;;;;2.20;1.10;;;12.60;99.90;;;13.38;85.82;101344.75;5200666;22;20078;-80
2023/06/04 04:55:34;;;;;;;1.42;1.13;;;13.00;99.90;;;13.80;82.77;101350.44;5172181;28;20046;-82
2023/06/04 04:58:07;;;;;;;3.47;1.38;;;13.40;99.60;;;14.23;80.03;101352.59;5173686;28;20043;-82
2023/06/04 05:00:39;;;;;;;2.58;1.02;;;13.80;98.20;;;14.60;77.95;101349.28;5155193;28;20042;-80
2023/06/04 05:03:12;;;;;;;1.52;0.90;;;14.20;97.30;;;14.91;75.23;101356.25;5149637;28;20043;-80
2023/06/04 05:05:45;;;;;;;2.45;1.30;;;14.50;95.80;;;15.16;75.03;101354.25;5140760;28;20153;-83
2023/06/04 05:08:18;;;;;;;1.70;1.10;;;14.70;95.40;;;15.35;73.77;101353.84;5144381;28;20070;-81
2023/06/04 05:10:51;;;;;;;2.15;1.10;;;14.90;94.60;;;15.58;72.91;101356.13;5177660;28;20039;-80
2023/06/04 05:13:25;;;;;;;2.03;1.30;;;15.10;94.10;;;15.72;72.24;101366.16;5147804;28;20046;-80
2023/06/04 05:16:07;;;;;;;1.60;1.10;;;15.30;93.60;;;15.87;72.36;101370.88;5147733;28;20516;-81
2023/06/04 05:18:41;;;;;;;1.10;0.98;;;15.50;93.50;;;16.00;72.83;101370.28;5152608;28;20043;-81
2023/06/04 05:21:16;;;;;;;2.65;1.27;;;15.60;93.60;;;16.19;72.54;101373.31;5150070;28;20042;-81
2023/06/04 05:23:54;;;;;;;3.00;1.25;;;15.70;93.50;;;16.40;71.78;101365.84;5146815;28;20106;-81
2023/06/04 05:26:29;;;;;;;3.03;1.50;;;15.90;93.10;;;16.67;70.51;101372.50;5173783;28;20046;-80
2023/06/04 05:29:07;;;;;;;2.28;1.30;;;16.20;92.50;;;16.86;70.75;101376.41;5158071;28;20046;-77
2023/06/04 05:31:42;;;;;;;1.45;1.17;;;16.40;92.40;;;16.96;70.87;101376.63;5139057;28;20036;-81
2023/06/04 05:34:18;;;;;;;2.40;1.23;;;16.40;92.40;;;17.05;70.76;101376.75;5172459;28;20062;-82
2023/06/04 05:36:53;;;;;;;2.20;1.42;;;16.60;92.30;;;17.18;70.69;101377.88;5169019;28;20121;-84
2023/06/04 05:39:25;;;;;;;3.00;1.30;;;16.70;92.10;;;17.37;71.61;101376.41;5169707;28;20050;-82
2023/06/04 05:42:04;;;;;;;1.90;1.42;;;16.80;92.50;;;17.54;72.49;101385.50;5163826;28;20047;-80
2023/06/04 05:44:37;;;;;;;2.50;1.35;;;17.00;92.90;;;17.63;72.75;101385.63;5150228;28;20043;-82
2023/06/04 05:47:10;;;;;;;2.05;1.40;;;17.10;93.00;;;17.70;73.25;101388.34;5155320;28;20054;-81
2023/06/04 05:49:43;;;;;;;1.77;1.38;;;17.20;93.20;;;17.81;72.34;101392.09;5146684;28;20066;-80
2023/06/04 05:52:16;;;;;;;2.30;1.30;;;17.30;92.90;;;17.94;71.46;101382.59;5145596;28;20046;-82
2023/06/04 05:54:51;;;;;;;1.95;1.10;;;17.40;92.40;;;18.03;71.15;101393.25;5162632;28;20046;-81
2023/06/04 05:57:23;;;;;;;2.00;1.20;;;17.40;92.20;;;17.99;71.23;101387.03;5132199;28;20502;-81
2023/06/04 05:59:56;;;;;;;4.03;1.27;;;17.40;92.20;;;18.07;72.64;101395.09;5161625;28;20069;-80
2023/06/04 06:02:30;;;;;;;2.30;1.23;;;17.50;92.80;;;18.30;69.44;101395.38;5162052;28;20044;-82
2023/06/04 06:05:02;;;;;;;2.78;1.50;;;17.70;91.40;;;18.61;67.82;101392.25;5151991;28;20086;-83
2023/06/04 06:07:34;;;;;;;3.00;1.27;;;17.90;90.60;;;18.90;65.95;101392.56;5133420;28;20058;-82
2023/06/04 06:10:08;;;;;;;1.63;1.02;;;18.20;89.50;;;19.17;65.06;101397.25;5165567;28;20045;-84
2023/06/04 06:12:41;;;;;;;1.95;1.33;;;18.40;88.20;;;19.40;63.76;101389.50;5137331;28;20051;-83
2023/06/04 06:15:15;;;;;;;1.70;1.20;;;18.70;86.40;;;19.58;63.46;101396.75;5163841;28;20039;-84
2023/06/04 06:17:49;;;;;;;2.42;1.13;;;18.90;85.70;;;19.74;62.85;101401.25;5143206;28;20043;-84
2023/06/04 06:20:22;;;;;;;2.03;1.20;;;19.00;84.80;;;19.92;61.32;101400.50;5165218;28;20043;-83
2023/06/04 06:22:54;;;;;;;2.00;1.02;;;19.20;82.90;;;20.04;60.47;101399.69;5145829;28;20054;-82
2023/06/04 06:25:28;;;;;;;2.17;1.20;;;19.40;81.50;;;20.24;59.58;101402.44;5146042;28;20049;-83
2023/06/04 06:28:09;;;;;;;;;;;19.50;80.40;;;20.38;58.36;101410.44;5147577;28;20081;-83
2023/06/04 06:30:44;;;;;;;2.42;1.10;;;19.70;78.50;;;20.58;58.25;101408.78;5145529;28;19945;-83
2023/06/04 06:33:16;;;;;;;1.38;1.10;;;19.80;78.10;;;20.73;57.31;101415.88;5148038;28;20502;-81
2023/06/04 06:35:48;;;;;;;1.63;1.08;;;20.00;76.80;;;20.90;56.68;101410.63;5144750;28;20050;-83
2023/06/04 06:38:20;;;;;;;1.95;1.00;;;20.10;75.90;;;20.82;56.57;101418.56;5148903;28;20528;-82
2023/06/04 06:40:52;;;;;;;1.83;1.02;;;20.10;75.30;;;20.68;56.86;101418.53;5152250;28;20139;-83
2023/06/04 06:43:24;;;;;;;3.10;1.42;;;20.00;75.10;;;20.62;56.86;101415.88;5142515;28;20051;-83
2023/06/04 06:45:58;;;;;;;3.13;0.98;;;20.00;75.10;;;20.70;57.24;101430.00;5149487;28;20047;-82
2023/06/04 06:48:30;;;;;;;2.70;1.00;;;20.00;75.40;;;20.76;56.96;101424.75;5141308;28;20079;-84
2023/06/04 06:51:02;;;;;;;1.77;1.02;;;20.10;75.00;;;20.73;56.50;101426.47;5159302;28;20540;-82
2023/06/04 06:53:34;;;;;;;1.35;0.93;;;20.00;74.40;;;20.90;57.41;101430.06;5149047;28;20055;-83
2023/06/04 06:56:06;;;;;;;1.08;0.82;;;20.20;75.20;;;21.21;55.86;101425.72;5145751;28;20043;-81
2023/06/04 06:58:38;;;;;;;1.50;0.93;;;20.40;74.10;;;21.39;55.26;101432.84;5140662;28;20110;-82
2023/06/04 07:01:12;;;;;;;1.98;1.05;;;20.60;73.20;;;21.46;54.97;101428.44;5175174;28;20049;-83
2023/06/04 07:03:44;;;;;;;2.53;1.15;;;20.70;72.60;;;21.46;54.95;101428.44;5147243;28;20051;-83
2023/06/04 07:06:17;;;;;;;1.40;1.10;;;20.70;72.40;;;21.51;54.60;101426.63;5160472;28;20505;-82
2023/06/04 07:08:49;;;;;;;2.58;1.30;;;20.70;71.80;;;21.73;54.37;101417.78;5146669;28;20516;-82
2023/06/04 07:11:21;;;;;;;1.60;1.00;;;20.90;71.50;;;21.95;53.78;101424.81;5154062;28;20117;-83
2023/06/04 07:13:53;;;;;;;2.25;1.23;;;21.10;71.00;;;22.12;54.26;101423.94;5172699;28;20567;-82
2023/06/04 07:16:27;;;;;;;1.40;1.00;;;21.20;71.30;;;22.35;54.19;101431.81;5173460;28;20047;-83
2023/06/04 07:18:59;;;;;;;2.33;1.33;;;21.50;71.20;;;22.44;52.44;101435.34;5157868;28;20047;-83
2023/06/04 07:21:31;;;;;;;2.13;1.20;;;21.60;69.20;;;22.37;52.34;101432.72;5158210;28;20038;-83
2023/06/04 07:24:03;;;;;;;1.70;1.05;;;21.50;68.70;;;22.40;52.40;101443.31;5170237;28;20035;-82
2023/06/04 07:26:35;;;;;;;2.33;1.10;;;21.60;69.00;;;22.63;52.92;101432.63;5177817;28;20047;-84
2023/06/04 07:29:07;;;;;;;1.45;1.08;;;21.70;69.40;;;22.62;53.12;101422.84;5172811;28;20049;-80
2023/06/04 07:31:42;;;;;;;2.70;1.23;;;21.80;69.30;;;22.73;53.19;101432.53;5153627;28;20046;-82
2023/06/04 07:34:15;;;;;;;2.80;1.33;;;21.90;69.50;;;23.01;52.63;101427.97;5154196;28;20050;-84
2023/06/04 07:36:47;;;;;;;1.75;1.20;;;22.10;68.90;;;23.27;52.54;101421.59;5151036;28;20684;-83
2023/06/04 07:39:19;;;;;;;1.75;0.90;;;22.30;68.60;;;23.50;51.82;101424.97;5155510;28;20039;-83
2023/06/04 07:41:52;;;;;;;2.92;1.00;;;22.50;67.80;;;23.50;51.25;101421.41;5180869;28;20081;-84
2023/06/04 07:44:24;;;;;;;1.58;1.10;;;22.60;67.10;;;23.68;51.36;101423.06;5142621;28;20047;-83
2023/06/04 07:46:57;;;;;;;2.80;1.20;;;22.70;67.30;;;23.87;50.73;101422.00;5152918;28;20054;-82
2023/06/04 07:49:29;;;;;;;2.50;1.13;;;22.90;66.70;;;24.03;50.09;101422.69;5146364;28;20050;-83
2023/06/04 07:52:01;;;;;;;1.23;1.02;;;23.00;66.30;;;24.14;48.84;101415.50;5161923;28;20045;-82
2023/06/04 07:54:34;;;;;;;2.17;1.02;;;23.10;64.70;;;24.09;48.73;101422.63;5139822;28;20054;-83
2023/06/04 07:57:06;;;;;;;1.60;0.95;;;23.10;64.20;;;24.29;49.65;101425.06;5146035;28;20114;-79
2023/06/04 07:59:38;;;;;;;1.35;1.10;;;23.20;65.10;;;24.64;50.14;101430.84;5140485;28;20074;-85
2023/06/04 08:02:12;;;;;;;1.20;0.90;;;23.40;65.70;;;24.99;48.97;101424.19;5139856;28;20047;-84
2023/06/04 08:04:45;;;;;;;3.15;1.05;;;23.70;65.00;;;25.26;47.98;101422.03;5137544;28;20050;-83
2023/06/04 08:07:17;;;;;;;1.95;1.20;;;23.80;63.90;;;25.52;47.40;101418.91;5148368;28;20146;-83
2023/06/04 08:09:49;;;;;;;2.60;1.50;;;24.00;63.40;;;25.92;46.96;101424.44;5142094;28;20039;-83
2023/06/04 08:12:21;;;;;;;1.27;0.98;;;24.10;63.10;;;26.38;45.89;101423.53;5130096;28;20114;-84
2023/06/04 08:14:56;;;;;;;2.60;1.38;;;24.40;62.70;;;26.75;45.12;101418.34;5138394;28;20464;-83
2023/06/04 08:17:30;;;;;;;1.23;0.90;;;24.50;61.70;;;27.42;44.50;101419.44;5148982;28;20039;-83
2023/06/04 08:20:06;;;;;;;1.85;1.00;;;24.90;61.60;;;28.07;42.73;101421.31;5141450;28;20082;-82
2023/06/04 08:22:38;;;;;;;2.20;1.10;;;25.30;60.00;;;28.77;42.03;101424.66;5140033;28;20105;-84
2023/06/04 08:25:10;;;;;;;1.52;1.13;;;25.60;60.60;;;29.40;39.54;101419.94;5151471;28;20126;-81
2023/06/04 08:27:43;;;;;;;1.52;0.80;;;26.00;57.80;;;30.14;39.68;101405.75;5163063;28;20404;-84
2023/06/04 08:30:16;;;;;;;1.10;0.90;;;26.40;58.00;;;30.93;38.62;101404.50;5150569;28;20054;-82
2023/06/04 08:32:50;;;;;;;1.98;1.00;;;26.80;57.30;;;31.91;36.52;101411.19;5158833;28;20133;-79
2023/06/04 08:35:22;;;;;;;2.65;1.20;;;27.30;55.70;;;33.12;34.59;101414.50;5154048;28;20613;-80
2023/06/04 08:37:54;;;;;;;1.10;0.88;;;28.10;54.10;;;33.99;32.12;101415.50;5143448;28;20043;-81
2023/06/04 08:40:26;;;;;;;1.30;0.85;;;28.90;51.40;;;34.89;30.07;101408.75;5151396;28;20050;-82
2023/06/04 08:42:59;;;;;;;1.15;0.80;;;29.80;48.90;;;35.07;29.66;101413.13;5151153;28;20666;-86
2023/06/04 08:45:40;;;;;;;1.70;1.00;;;30.20;47.30;;;35.76;28.03;101412.63;5142669;28;20517;-83
2023/06/04 08:48:14;;;;;;;1.20;0.70;;;31.10;45.40;;;35.64;26.74;101418.81;5149701;28;20433;-82
2023/06/04 08:50:48;;;;;;;2.13;0.85;;;31.30;43.50;;;35.74;26.25;101417.28;5151995;28;20043;-82
2023/06/04 08:53:21;;;;;;;1.95;0.77;;;31.60;42.80;;;36.33;26.94;101414.56;5151068;28;20039;-84
2023/06/04 08:55:54;;;;;;;1.30;0.80;;;32.20;43.00;;;36.57;25.66;101417.56;5151742;28;20134;-82
2023/06/04 08:58:27;;;;;;;2.17;0.90;;;32.50;41.60;;;36.26;25.55;101411.38;5152175;28;20043;-82
2023/06/04 09:01:00;;;;;;;1.05;0.90;;;32.40;41.00;;;36.25;25.51;101406.88;5151331;28;20038;-81
2023/06/04 09:03:34;;;;;;;2.00;0.93;;;32.50;41.00;;;36.41;25.96;101415.84;5137492;28;20043;-82
2023/06/04 09:06:06;;;;;;;2.22;0.90;;;32.70;41.10;;;36.24;24.91;101417.84;5148592;28;20047;-82
2023/06/04 09:08:43;;;;;;;1.38;1.02;;;32.50;40.00;;;36.07;24.91;101421.63;5147343;28;20062;-82
2023/06/04 09:11:17;;;;;;;2.35;0.82;;;32.40;40.00;;;36.07;24.76;101418.91;5150080;28;20571;-83
2023/06/04 09:13:49;;;;;;;1.67;0.90;;;32.40;39.60;;;36.14;24.93;101417.56;5152266;28;20046;-84
2023/06/04 09:16:21;;;;;;;3.15;0.95;;;32.40;39.90;;;36.25;24.74;101420.44;5153207;28;20039;-84
2023/06/04 09:18:55;;;;;;;1.60;0.82;;;32.50;39.90;;;36.23;24.94;101414.25;5151663;28;20070;-84
2023/06/04 09:21:27;;;;;;;3.92;1.13;;;32.60;39.70;;;35.79;24.83;101417.84;5158700;28;20078;-83
2023/06/04 09:24:00;;;;;;;1.77;0.82;;;32.50;39.50;;;35.30;25.09;101409.94;5157542;28;20137;-83
2023/06/04 09:26:32;;;;;;;1.80;0.80;;;32.30;39.50;;;34.19;25.72;101410.84;5158960;28;20053;-84
2023/06/04 09:29:06;;;;;;;0.80;0.70;;;31.80;39.40;;;33.61;26.78;101409.34;5153141;28;20051;-83
2023/06/04 09:31:39;;;;;;;2.47;0.80;;;31.50;40.30;;;32.78;27.80;101408.97;5151821;28;20080;-84
2023/06/04 09:34:13;;;;;;;1.60;1.00;;;31.00;40.80;;;31.72;27.87;101413.78;5154629;28;20118;-83
2023/06/04 09:36:46;;;;;;;2.42;1.00;;;30.40;40.30;;;30.66;29.41;101410.97;5154394;28;20049;-83
2023/06/04 09:39:19;;;;;;;2.58;0.90;;;29.70;41.50;;;29.82;30.15;101409.56;5168821;28;20082;-84
2023/06/04 09:42:00;;;;;;;2.65;0.88;;;29.00;41.70;;;29.29;30.26;101406.91;5155144;28;20433;-84
2023/06/04 09:44:32;;;;;;;2.00;0.90;;;28.60;42.00;;;29.13;30.96;101405.63;5149930;28;20038;-84
2023/06/04 09:47:05;;;;;;;2.55;0.80;;;28.20;42.50;;;29.08;31.93;101407.59;5153196;28;20058;-83
2023/06/04 09:49:43;;;;;;;1.17;0.82;;;28.20;43.40;;;29.05;32.59;101397.84;5153811;28;20049;-83
2023/06/04 09:52:15;;;;;;;5.57;1.02;;;28.10;44.10;;;28.67;32.55;101388.28;5154277;28;20047;-83
2023/06/04 09:54:47;;;;;;;1.00;0.80;;;27.80;44.40;;;28.37;33.04;101399.03;5150537;28;20057;-83
2023/06/04 09:57:20;;;;;;;2.13;1.00;;;27.50;44.10;;;28.42;33.41;101408.72;5153432;28;20497;-83
2023/06/04 09:59:55;;;;;;;2.17;0.98;;;27.50;44.50;;;28.34;33.20;101403.59;5171804;28;20616;-84
2023/06/04 10:02:30;;;;;;;1.88;0.90;;;27.40;44.20;;;28.22;32.77;101399.44;5153847;28;20509;-83
2023/06/04 10:05:08;;;;;;;1.83;0.85;;;27.40;43.80;;;28.30;32.96;101400.09;5154586;28;20654;-83
2023/06/04 10:07:42;;;;;;;1.73;0.80;;;27.40;44.10;;;28.43;32.49;101407.78;5147033;28;20043;-84
2023/06/04 10:10:17;;;;;;;;;;;27.50;43.90;;;28.14;32.44;101396.09;5155327;28;20050;-84
2023/06/04 10:12:54;;;;;;;1.20;0.70;;;27.30;43.60;;;28.10;32.21;101399.78;5155563;28;19925;-83
2023/06/04 10:15:26;;;;;;;1.50;0.80;;;27.30;43.30;;;27.96;31.85;101393.94;5154049;28;20050;-83
2023/06/04 10:17:59;;;;;;;1.92;1.00;;;27.20;43.00;;;27.80;32.69;101396.16;5147429;28;20046;-84
2023/06/04 10:20:33;;;;;;;1.75;1.00;;;27.10;43.50;;;27.78;32.31;101393.53;5135885;28;20057;-83
2023/06/04 10:23:05;;;;;;;;;;;27.00;43.40;;;27.89;32.20;101392.34;5148182;28;20043;-83
2023/06/04 10:25:37;;;;;;;3.50;1.27;;;27.00;43.20;;;27.98;31.65;101394.78;5143890;28;19923;-83
2023/06/04 10:28:09;;;;;;;1.67;0.82;;;27.10;43.10;;;28.02;31.74;101383.03;5148191;28;20055;-85
2023/06/04 10:30:41;;;;;;;1.85;0.90;;;27.10;42.90;;;27.91;31.97;101382.44;5148298;28;20141;-85
2023/06/04 10:33:14;;;;;;;0.88;0.70;;;27.10;43.30;;;28.04;31.97;101378.53;5146220;28;20494;-86
2023/06/04 10:35:47;;;;;;;3.08;0.82;;;27.10;43.10;;;28.18;31.39;101386.19;5144736;28;20055;-85
2023/06/04 10:38:21;;;;;;;1.25;0.60;;;27.20;42.90;;;28.17;31.56;101382.63;5149850;28;20057;-85